Time;durP1;ratioP1;P1;durP2;ratioP2;P2;SDS_P1;SDS_P2;PMS_P1;PMS_P2;Temp;Humidity;BMP_temperature;BMP_pressure;BME280_temperature;BME280_humidity;BME280_pressure;Samples;Min_cycle;Max_cycle;Signal;HPM_P1;HPM_P2
2021/04/24 00:00:38;;;;;;;9.75;4.38;;;11.00;41.20;;;;;;5060306;28;20060;-76
2021/04/24 00:03:07;;;;;;;8.35;4.40;;;10.90;41.20;;;;;;5061030;28;20135;-76
2021/04/24 00:05:40;;;;;;;11.52;4.60;;;10.90;41.60;;;;;;5061639;28;20068;-76
2021/04/24 00:08:10;;;;;;;10.07;4.15;;;10.80;41.80;;;;;;5063273;28;20056;-77
2021/04/24 00:10:41;;;;;;;7.47;4.20;;;10.70;42.00;;;;;;5071537;28;20459;-76
2021/04/24 00:13:09;;;;;;;11.75;4.22;;;10.70;42.40;;;;;;5064248;28;20180;-76
2021/04/24 00:15:35;;;;;;;9.43;4.35;;;10.80;42.40;;;;;;5070967;28;20068;-76
2021/04/24 00:18:03;;;;;;;11.07;4.57;;;10.90;42.40;;;;;;5068285;28;20083;-76
2021/04/24 00:20:30;;;;;;;6.85;4.55;;;10.90;42.50;;;;;;5071353;28;20098;-76
2021/04/24 00:22:56;;;;;;;7.97;4.00;;;10.70;43.00;;;;;;5070511;28;20045;-76
2021/04/24 00:25:23;;;;;;;8.18;4.70;;;10.60;43.30;;;;;;5068469;28;20058;-76
2021/04/24 00:27:50;;;;;;;10.50;4.53;;;10.70;43.60;;;;;;5069182;28;20075;-76
2021/04/24 00:30:17;;;;;;;8.60;4.55;;;10.80;43.70;;;;;;5071481;28;20049;-76
2021/04/24 00:32:44;;;;;;;12.52;4.80;;;10.70;44.20;;;;;;5070092;28;20056;-76
2021/04/24 00:35:12;;;;;;;10.93;4.95;;;10.60;44.70;;;;;;5076145;28;20049;-76
2021/04/24 00:37:38;;;;;;;10.25;5.15;;;10.50;45.40;;;;;;5070260;28;20060;-76
2021/04/24 00:40:07;;;;;;;7.43;4.88;;;10.60;45.40;;;;;;5069619;28;20462;-76
2021/04/24 00:42:35;;;;;;;10.02;5.43;;;10.40;46.10;;;;;;5071574;28;20071;-76
2021/04/24 00:45:02;;;;;;;10.70;5.13;;;10.30;46.80;;;;;;5066515;28;20063;-76
2021/04/24 00:47:29;;;;;;;9.45;4.90;;;10.30;47.10;;;;;;5066844;28;20099;-76
2021/04/24 00:49:55;;;;;;;11.30;5.28;;;10.20;47.40;;;;;;5071781;28;20052;-76
2021/04/24 00:52:22;;;;;;;9.43;4.63;;;10.20;47.80;;;;;;5075876;28;20041;-77
2021/04/24 00:54:48;;;;;;;17.70;5.20;;;10.40;47.70;;;;;;5067150;28;20041;-77
2021/04/24 00:57:16;;;;;;;10.82;5.38;;;10.40;47.70;;;;;;5071705;28;20096;-76
2021/04/24 00:59:42;;;;;;;11.52;4.95;;;10.30;47.80;;;;;;5064148;28;20083;-76
2021/04/24 01:02:09;;;;;;;10.52;4.63;;;10.40;47.80;;;;;;5071692;28;20079;-76
2021/04/24 01:04:36;;;;;;;12.88;5.15;;;10.30;48.00;;;;;;5068721;28;20053;-76
2021/04/24 01:07:04;;;;;;;10.82;5.15;;;10.40;47.70;;;;;;5071974;28;20048;-76
2021/04/24 01:09:31;;;;;;;11.40;5.03;;;10.60;47.70;;;;;;5070091;28;20045;-76
2021/04/24 01:11:57;;;;;;;12.70;5.22;;;10.40;47.80;;;;;;5066891;28;20068;-76
2021/04/24 01:14:24;;;;;;;11.25;5.18;;;10.10;48.40;;;;;;5070628;28;20124;-76
2021/04/24 01:16:50;;;;;;;10.60;5.15;;;10.20;48.30;;;;;;5063290;28;20536;-76
2021/04/24 01:19:22;;;;;;;10.73;5.22;;;10.10;48.40;;;;;;5073391;28;20067;-76
2021/04/24 01:21:51;;;;;;;11.48;5.22;;;10.00;48.50;;;;;;5071705;28;20132;-76
2021/04/24 01:24:19;;;;;;;11.68;5.10;;;9.80;50.00;;;;;;5073369;28;20143;-76
2021/04/24 01:26:46;;;;;;;9.23;4.82;;;9.90;50.10;;;;;;5074585;28;20076;-76
2021/04/24 01:29:13;;;;;;;10.55;4.90;;;9.90;50.00;;;;;;5063398;28;20179;-77
2021/04/24 01:31:40;;;;;;;15.75;5.53;;;9.90;50.00;;;;;;5065800;28;20168;-77
2021/04/24 01:34:08;;;;;;;10.82;5.35;;;9.80;50.30;;;;;;5071523;28;20056;-75
2021/04/24 01:36:35;;;;;;;14.98;4.90;;;9.80;50.30;;;;;;5068394;28;20701;-75
2021/04/24 01:39:06;;;;;;;11.65;5.30;;;9.90;50.20;;;;;;5081135;28;20050;-74
2021/04/24 01:41:33;;;;;;;9.38;4.88;;;9.70;50.30;;;;;;5067978;28;20125;-75
2021/04/24 01:44:00;;;;;;;18.38;5.40;;;9.50;50.70;;;;;;5059112;28;20049;-75
2021/04/24 01:46:27;;;;;;;12.77;5.53;;;9.60;50.70;;;;;;5066342;28;20095;-76
2021/04/24 01:48:53;;;;;;;9.38;5.00;;;9.70;50.60;;;;;;5069658;28;20076;-76
2021/04/24 01:51:20;;;;;;;10.48;4.97;;;9.70;50.30;;;;;;5075163;28;20099;-75
2021/04/24 01:53:48;;;;;;;14.07;5.03;;;9.80;50.40;;;;;;5071521;28;20048;-76
2021/04/24 01:56:47;;;;;;;11.65;5.22;;;9.70;50.50;;;;;;5071315;28;20110;-75
2021/04/24 01:59:18;;;;;;;12.27;5.43;;;9.70;50.80;;;;;;5087106;28;20041;-75
2021/04/24 02:01:51;;;;;;;12.20;5.20;;;9.60;50.90;;;;;;5077146;28;20058;-75
2021/04/24 02:04:19;;;;;;;10.90;5.57;;;9.40;51.40;;;;;;5067338;28;20127;-75
2021/04/24 02:06:45;;;;;;;13.65;5.53;;;9.30;51.90;;;;;;5073257;28;20502;-75
2021/04/24 02:09:14;;;;;;;15.48;5.75;;;9.20;52.30;;;;;;5070689;28;20044;-75
2021/04/24 02:12:05;;;;;;;11.35;5.40;;;9.20;52.60;;;;;;5068729;28;20083;-75
2021/04/24 02:14:50;;;;;;;9.82;4.85;;;9.20;52.70;;;;;;5070766;28;20045;-75
2021/04/24 02:17:24;;;;;;;10.27;5.13;;;9.20;52.90;;;;;;5072712;28;20465;-75
2021/04/24 02:19:51;;;;;;;10.48;5.07;;;9.20;52.80;;;;;;5066621;28;20503;-75
2021/04/24 02:22:20;;;;;;;16.65;5.20;;;9.30;52.70;;;;;;5073803;28;20106;-75
2021/04/24 02:24:53;;;;;;;11.30;4.93;;;9.10;53.00;;;;;;5072404;28;20172;-75
2021/04/24 02:27:20;;;;;;;12.88;5.07;;;9.10;53.00;;;;;;5073627;28;20048;-75
2021/04/24 02:29:47;;;;;;;15.10;4.60;;;9.10;53.10;;;;;;5072657;28;20514;-75
2021/04/24 02:32:15;;;;;;;19.83;5.35;;;9.00;53.00;;;;;;5070442;28;20052;-76
2021/04/24 02:34:45;;;;;;;16.45;5.10;;;8.90;53.30;;;;;;5064648;28;20415;-75
2021/04/24 02:37:14;;;;;;;11.60;4.93;;;9.00;53.60;;;;;;5072644;28;20156;-76
2021/04/24 02:39:43;;;;;;;11.93;4.88;;;8.90;53.70;;;;;;5087709;28;20101;-75
2021/04/24 02:42:12;;;;;;;12.75;5.28;;;9.00;53.60;;;;;;5071862;28;20045;-75
2021/04/24 02:44:40;;;;;;;9.17;4.63;;;9.00;53.40;;;;;;5065748;28;20049;-75
2021/04/24 02:47:07;;;;;;;14.48;4.85;;;8.90;53.80;;;;;;5072961;28;20647;-75
2021/04/24 02:49:33;;;;;;;12.50;5.18;;;8.90;54.30;;;;;;5069678;28;20086;-75
2021/04/24 02:52:01;;;;;;;11.43;5.57;;;8.90;54.30;;;;;;5071895;28;20044;-75
2021/04/24 02:54:28;;;;;;;12.85;5.20;;;8.90;54.20;;;;;;5069537;28;20439;-76
2021/04/24 02:56:54;;;;;;;13.43;5.20;;;8.90;54.30;;;;;;5073420;28;20080;-75
2021/04/24 02:59:21;;;;;;;11.98;5.40;;;8.80;54.70;;;;;;5066931;28;20050;-75
2021/04/24 03:01:48;;;;;;;14.10;4.68;;;8.70;54.90;;;;;;5068881;28;20096;-76
2021/04/24 03:04:15;;;;;;;9.55;5.30;;;8.60;55.00;;;;;;5070498;28;20052;-75
2021/04/24 03:06:42;;;;;;;11.15;5.57;;;8.60;55.20;;;;;;5073693;28;20084;-75
2021/04/24 03:09:09;;;;;;;13.25;5.32;;;8.60;55.30;;;;;;5070226;28;20131;-75
2021/04/24 03:11:36;;;;;;;9.30;4.80;;;8.50;55.50;;;;;;5070196;28;20414;-76
2021/04/24 03:14:04;;;;;;;10.93;4.75;;;8.60;55.50;;;;;;5081674;28;20407;-75
2021/04/24 03:16:31;;;;;;;9.48;4.70;;;8.40;55.60;;;;;;5068493;28;20086;-75
2021/04/24 03:18:58;;;;;;;9.70;5.30;;;8.60;55.40;;;;;;5071874;28;20083;-75
2021/04/24 03:21:26;;;;;;;9.68;5.40;;;8.50;55.80;;;;;;5073079;28;20522;-75
2021/04/24 03:23:53;;;;;;;14.95;5.45;;;8.70;55.30;;;;;;5069926;28;20117;-75
2021/04/24 03:26:20;;;;;;;13.65;5.15;;;8.60;55.10;;;;;;5071270;28;20079;-75
2021/04/24 03:28:46;;;;;;;9.77;4.47;;;8.60;55.10;;;;;;5070797;28;20049;-75
2021/04/24 03:31:13;;;;;;;10.88;4.68;;;8.50;55.70;;;;;;5072530;28;20141;-75
2021/04/24 03:33:40;;;;;;;12.15;4.93;;;8.60;55.30;;;;;;5070965;28;20123;-75
2021/04/24 03:36:07;;;;;;;12.60;4.82;;;8.60;54.70;;;;;;5071008;28;20049;-75
2021/04/24 03:38:35;;;;;;;10.68;5.32;;;8.40;55.00;;;;;;5071220;28;20041;-75
2021/04/24 03:41:03;;;;;;;10.43;4.85;;;8.40;55.10;;;;;;5072042;28;20050;-75
2021/04/24 03:43:29;;;;;;;10.32;5.07;;;8.20;55.70;;;;;;5065332;28;20861;-76
2021/04/24 03:45:56;;;;;;;9.75;4.45;;;8.10;55.70;;;;;;5071643;28;20051;-75
2021/04/24 03:48:22;;;;;;;11.85;4.85;;;8.40;55.20;;;;;;5068094;28;20067;-75
2021/04/24 03:50:48;;;;;;;8.07;4.63;;;8.50;55.00;;;;;;5072703;28;20052;-75
2021/04/24 03:53:15;;;;;;;10.63;5.22;;;8.40;54.90;;;;;;5071413;28;20051;-76
2021/04/24 03:55:41;;;;;;;11.73;5.15;;;8.10;55.50;;;;;;5070403;28;20049;-76
2021/04/24 03:58:07;;;;;;;14.68;5.53;;;8.20;56.00;;;;;;5070511;28;20056;-76
2021/04/24 04:00:34;;;;;;;9.88;4.93;;;8.20;55.60;;;;;;5070291;28;20125;-76
2021/04/24 04:03:04;;;;;;;11.07;5.07;;;8.20;55.80;;;;;;5064327;28;20102;-76
2021/04/24 04:05:42;;;;;;;10.00;4.57;;;8.10;56.00;;;;;;5069982;28;20411;-76
2021/04/24 04:08:10;;;;;;;11.38;5.20;;;8.00;56.20;;;;;;5070895;28;20549;-76
2021/04/24 04:10:38;;;;;;;9.85;4.47;;;8.10;56.30;;;;;;5069912;28;20139;-76
2021/04/24 04:13:06;;;;;;;13.02;5.00;;;8.20;56.00;;;;;;5069415;28;20050;-76
2021/04/24 04:15:33;;;;;;;9.30;5.10;;;8.20;55.70;;;;;;5071288;28;20052;-76
2021/04/24 04:18:03;;;;;;;9.57;4.85;;;8.10;55.80;;;;;;5071022;28;20060;-76
2021/04/24 04:20:30;;;;;;;13.27;5.40;;;8.00;56.00;;;;;;5070093;28;20049;-75
2021/04/24 04:22:57;;;;;;;14.00;4.70;;;8.10;55.90;;;;;;5070218;28;20079;-75
2021/04/24 04:25:24;;;;;;;9.45;4.57;;;8.20;55.80;;;;;;5069467;28;20590;-75
2021/04/24 04:27:51;;;;;;;9.05;4.57;;;8.10;55.60;;;;;;5069862;28;20052;-75
2021/04/24 04:30:18;;;;;;;11.07;4.70;;;8.10;55.80;;;;;;5069420;28;20136;-75
2021/04/24 04:32:45;;;;;;;10.85;5.00;;;8.20;55.70;;;;;;5066586;28;20448;-75
2021/04/24 04:35:13;;;;;;;7.90;4.45;;;8.10;55.70;;;;;;5069377;28;20048;-75
2021/04/24 04:37:40;;;;;;;11.25;5.07;;;8.10;55.60;;;;;;5070389;28;20482;-76
2021/04/24 04:40:08;;;;;;;10.77;4.38;;;7.90;56.00;;;;;;5069806;28;20522;-75
2021/04/24 04:42:35;;;;;;;8.15;4.68;;;8.00;56.20;;;;;;5071768;28;20052;-75
2021/04/24 04:45:04;;;;;;;10.73;4.82;;;8.10;56.20;;;;;;5067894;28;20388;-75
2021/04/24 04:47:30;;;;;;;10.38;4.43;;;7.90;56.20;;;;;;5064645;28;20491;-75
2021/04/24 04:49:57;;;;;;;9.82;4.85;;;8.00;55.90;;;;;;5068485;28;20061;-75
2021/04/24 04:52:23;;;;;;;8.85;4.40;;;8.00;55.80;;;;;;5071055;28;20145;-75
2021/04/24 04:54:54;;;;;;;11.18;4.65;;;8.00;56.70;;;;;;5070306;28;20106;-75
2021/04/24 04:57:21;;;;;;;8.50;4.45;;;7.90;56.20;;;;;;5065229;28;20464;-76
2021/04/24 04:59:47;;;;;;;17.30;4.60;;;8.00;56.10;;;;;;5070205;28;20588;-75
2021/04/24 05:02:14;;;;;;;10.88;4.75;;;7.90;56.20;;;;;;5063062;28;20166;-75
2021/04/24 05:04:40;;;;;;;11.27;4.60;;;8.00;56.40;;;;;;5065266;28;20044;-76
2021/04/24 05:07:06;;;;;;;10.77;4.30;;;8.00;56.30;;;;;;5072081;28;20128;-76
2021/04/24 05:09:36;;;;;;;10.60;4.75;;;8.00;56.50;;;;;;5069066;28;20094;-76
2021/04/24 05:12:03;;;;;;;11.85;4.75;;;8.10;56.70;;;;;;5067891;28;20380;-76
2021/04/24 05:14:29;;;;;;;12.15;5.07;;;8.10;56.50;;;;;;5069191;28;20129;-76
2021/04/24 05:16:55;;;;;;;11.98;4.90;;;8.10;56.80;;;;;;5068649;28;20080;-76
2021/04/24 05:19:22;;;;;;;8.90;4.90;;;8.30;56.70;;;;;;5069191;28;20048;-76
2021/04/24 05:21:48;;;;;;;13.77;5.30;;;8.50;56.50;;;;;;5069067;28;20052;-77
2021/04/24 05:24:14;;;;;;;9.88;4.93;;;8.50;56.60;;;;;;5073229;28;20143;-77
2021/04/24 05:26:41;;;;;;;8.55;4.72;;;8.50;56.50;;;;;;5073683;28;20064;-76
2021/04/24 05:29:07;;;;;;;9.90;5.13;;;8.50;56.60;;;;;;5074071;28;20473;-77
2021/04/24 05:31:34;;;;;;;12.02;5.07;;;8.50;56.50;;;;;;5072902;28;20131;-77
2021/04/24 05:34:00;;;;;;;12.73;5.68;;;8.50;56.80;;;;;;5073873;28;20113;-75
2021/04/24 05:36:27;;;;;;;10.43;5.38;;;8.50;56.70;;;;;;5072584;28;20076;-75
2021/04/24 05:38:54;;;;;;;12.30;5.38;;;8.50;56.70;;;;;;5074842;28;20114;-76
2021/04/24 05:41:23;;;;;;;14.88;5.80;;;8.60;56.70;;;;;;5073136;28;21075;-76
2021/04/24 05:43:55;;;;;;;12.63;5.40;;;8.70;56.40;;;;;;5071051;28;20478;-76
2021/04/24 05:46:23;;;;;;;11.98;5.35;;;8.90;55.90;;;;;;5074018;28;20044;-75
2021/04/24 05:48:50;;;;;;;13.15;5.43;;;9.20;55.40;;;;;;5071606;28;20047;-75
2021/04/24 05:51:18;;;;;;;14.73;5.82;;;9.30;55.50;;;;;;5074534;28;20102;-75
2021/04/24 05:53:46;;;;;;;13.80;5.45;;;9.80;54.40;;;;;;5072004;28;20501;-75
2021/04/24 05:56:14;;;;;;;13.07;5.57;;;10.60;52.00;;;;;;5071510;28;20075;-75
2021/04/24 05:58:40;;;;;;;14.60;6.03;;;10.70;51.10;;;;;;5089534;28;20090;-75
2021/04/24 06:01:07;;;;;;;8.95;5.22;;;10.90;50.90;;;;;;5070945;28;20087;-75
2021/04/24 06:03:34;;;;;;;10.75;5.28;;;11.10;50.50;;;;;;5071937;28;20087;-75
2021/04/24 06:06:01;;;;;;;13.40;5.28;;;11.40;49.70;;;;;;5071834;28;20380;-75
2021/04/24 06:08:27;;;;;;;10.68;5.50;;;11.90;49.20;;;;;;5072632;28;20509;-75
2021/04/24 06:10:53;;;;;;;10.95;5.05;;;12.30;48.30;;;;;;5072450;28;20040;-75
2021/04/24 06:13:20;;;;;;;13.25;5.30;;;11.70;48.30;;;;;;5070393;28;20565;-75
2021/04/24 06:15:46;;;;;;;8.70;4.68;;;11.70;49.00;;;;;;5073413;28;20521;-75
2021/04/24 06:18:14;;;;;;;12.82;5.43;;;11.90;48.40;;;;;;5069990;28;20080;-75
2021/04/24 06:20:40;;;;;;;12.82;5.30;;;11.60;48.80;;;;;;5073212;28;20148;-75
2021/04/24 06:23:07;;;;;;;10.07;5.20;;;11.40;49.00;;;;;;5070635;28;20167;-75
2021/04/24 06:25:33;;;;;;;16.70;5.25;;;11.10;50.00;;;;;;5072761;28;20090;-75
2021/04/24 06:27:59;;;;;;;11.00;5.40;;;12.30;48.80;;;;;;5073080;28;20133;-75
2021/04/24 06:30:26;;;;;;;13.13;5.40;;;12.60;46.70;;;;;;5071961;28;20048;-75
2021/04/24 06:32:53;;;;;;;15.90;5.18;;;11.40;48.40;;;;;;5070321;28;20105;-75
2021/04/24 06:35:22;;;;;;;8.30;5.13;;;11.00;49.90;;;;;;5071510;28;20091;-75
2021/04/24 06:37:49;;;;;;;10.25;5.40;;;11.50;49.20;;;;;;5070218;28;20040;-75
2021/04/24 06:40:16;;;;;;;10.10;5.32;;;11.40;49.10;;;;;;5072021;28;20103;-76
2021/04/24 06:42:44;;;;;;;10.77;5.70;;;11.40;49.10;;;;;;5072650;28;20076;-75
2021/04/24 06:45:12;;;;;;;10.07;5.38;;;11.40;49.40;;;;;;5069775;28;20083;-75
2021/04/24 06:47:38;;;;;;;9.45;5.22;;;11.10;49.40;;;;;;5072277;28;20084;-75
2021/04/24 06:50:07;;;;;;;11.20;5.57;;;11.00;49.90;;;;;;5072642;28;20464;-76
2021/04/24 06:52:33;;;;;;;9.60;5.25;;;11.30;49.80;;;;;;5072393;28;20087;-75
2021/04/24 06:55:00;;;;;;;24.48;5.68;;;11.70;49.40;;;;;;5073481;28;20079;-76
2021/04/24 06:57:26;;;;;;;9.55;5.30;;;11.90;49.20;;;;;;5066178;28;20117;-76
2021/04/24 06:59:53;;;;;;;16.50;5.13;;;12.80;47.50;;;;;;5073703;28;20043;-75
2021/04/24 07:02:19;;;;;;;21.17;5.65;;;12.70;46.70;;;;;;5070065;28;20139;-76
2021/04/24 07:04:46;;;;;;;12.75;5.45;;;12.60;47.10;;;;;;5068696;28;20075;-76
2021/04/24 07:07:13;;;;;;;10.43;5.03;;;12.40;47.30;;;;;;5071154;28;20053;-76
2021/04/24 07:09:39;;;;;;;11.73;5.72;;;12.10;48.10;;;;;;5064839;28;20049;-75
2021/04/24 07:12:06;;;;;;;10.18;5.70;;;12.10;48.10;;;;;;5071170;28;20452;-75
2021/04/24 07:14:32;;;;;;;10.52;5.30;;;12.60;47.80;;;;;;5072625;28;20128;-75
2021/04/24 07:16:59;;;;;;;13.35;5.80;;;13.90;45.70;;;;;;5064238;28;20040;-75
2021/04/24 07:19:26;;;;;;;12.90;5.28;;;14.20;44.50;;;;;;5070927;28;20456;-75
2021/04/24 07:21:53;;;;;;;10.52;5.15;;;14.50;44.30;;;;;;5072119;28;20445;-75
2021/04/24 07:24:19;;;;;;;12.80;5.30;;;14.50;44.00;;;;;;5070846;28;20135;-77
2021/04/24 07:26:46;;;;;;;10.82;5.43;;;15.00;44.20;;;;;;5068969;28;20083;-76
2021/04/24 07:29:17;;;;;;;10.05;5.55;;;14.60;43.70;;;;;;5070603;28;20159;-75
2021/04/24 07:31:44;;;;;;;17.50;6.00;;;13.30;45.50;;;;;;5064692;28;20422;-76
2021/04/24 07:34:11;;;;;;;16.02;6.30;;;13.10;46.20;;;;;;5070415;28;20415;-75
2021/04/24 07:36:37;;;;;;;11.68;5.93;;;13.30;46.60;;;;;;5069899;28;20086;-75
2021/04/24 07:39:06;;;;;;;14.00;6.55;;;13.50;46.10;;;;;;5072917;28;20195;-76
2021/04/24 07:41:33;;;;;;;20.00;5.88;;;13.50;46.10;;;;;;5069297;28;20049;-76
2021/04/24 07:44:00;;;;;;;12.95;6.00;;;14.30;45.10;;;;;;5070831;28;20049;-76
2021/04/24 07:46:26;;;;;;;13.00;5.78;;;13.60;45.70;;;;;;5067334;28;20484;-75
2021/04/24 07:48:53;;;;;;;10.43;6.05;;;13.20;46.60;;;;;;5068833;28;20060;-76
2021/04/24 07:51:20;;;;;;;16.63;5.78;;;13.10;46.40;;;;;;5069798;28;20068;-76
2021/04/24 07:53:46;;;;;;;12.60;5.60;;;12.90;46.70;;;;;;5068005;28;20131;-76
2021/04/24 07:56:14;;;;;;;13.10;5.05;;;13.80;45.90;;;;;;5065735;28;20440;-76
2021/04/24 07:58:40;;;;;;;16.88;5.95;;;14.20;44.90;;;;;;5070734;28;20056;-76
2021/04/24 08:01:07;;;;;;;10.80;5.75;;;14.30;44.80;;;;;;5069079;28;20083;-76
2021/04/24 08:03:33;;;;;;;13.13;5.90;;;14.10;44.70;;;;;;5059825;28;20125;-77
2021/04/24 08:06:00;;;;;;;14.27;7.07;;;14.20;44.60;;;;;;5069407;28;20579;-76
2021/04/24 08:08:26;;;;;;;13.32;6.07;;;14.60;44.90;;;;;;5059936;28;20785;-76
2021/04/24 08:10:52;;;;;;;11.25;5.47;;;15.10;44.60;;;;;;5071970;28;20139;-76
2021/04/24 08:13:18;;;;;;;11.95;6.15;;;16.20;42.40;;;;;;5060845;28;20098;-77
2021/04/24 08:15:45;;;;;;;14.05;6.35;;;15.80;42.60;;;;;;5076146;28;20094;-77
2021/04/24 08:18:11;;;;;;;12.18;6.55;;;15.10;42.70;;;;;;5069153;28;20076;-76
2021/04/24 08:20:37;;;;;;;19.33;6.20;;;14.80;44.00;;;;;;5069062;28;20048;-76
2021/04/24 08:23:04;;;;;;;11.50;5.60;;;14.80;44.20;;;;;;5071004;28;20052;-76
2021/04/24 08:25:32;;;;;;;16.08;6.22;;;14.80;43.80;;;;;;5068614;28;20477;-79
2021/04/24 08:27:59;;;;;;;14.43;6.75;;;14.90;44.60;;;;;;5071197;28;20496;-77
2021/04/24 08:30:26;;;;;;;11.18;6.00;;;15.40;43.40;;;;;;5070707;28;20076;-82
2021/04/24 08:32:57;;;;;;;14.60;5.88;;;16.00;42.60;;;;;;5060975;28;20064;-80
2021/04/24 08:35:24;;;;;;;13.20;5.95;;;17.20;40.70;;;;;;5068591;28;20044;-78
2021/04/24 08:37:50;;;;;;;14.20;6.60;;;16.60;40.50;;;;;;5068260;28;20092;-81
2021/04/24 08:40:18;;;;;;;15.02;5.80;;;16.20;41.50;;;;;;5069156;28;20139;-81
2021/04/24 08:42:47;;;;;;;13.70;6.13;;;16.60;41.40;;;;;;5069728;28;20080;-84
2021/04/24 08:45:16;;;;;;;14.60;6.00;;;16.70;41.00;;;;;;5071100;28;20079;-81
2021/04/24 08:47:45;;;;;;;13.75;5.68;;;16.30;41.20;;;;;;5070632;28;20185;-82
2021/04/24 08:50:14;;;;;;;11.88;5.90;;;16.60;40.90;;;;;;5073173;28;20166;-82
2021/04/24 08:52:41;;;;;;;12.18;5.90;;;16.20;40.60;;;;;;5073464;28;20114;-81
2021/04/24 08:55:09;;;;;;;14.25;6.10;;;15.80;41.80;;;;;;5056562;28;20098;-78
2021/04/24 08:57:37;;;;;;;15.43;5.55;;;16.10;42.30;;;;;;5054811;28;20037;-82
2021/04/24 09:00:07;;;;;;;12.27;5.47;;;17.10;40.90;;;;;;5042572;28;20056;-83
2021/04/24 09:02:34;;;;;;;17.52;5.70;;;17.60;39.80;;;;;;5060400;28;20075;-78
2021/04/24 09:05:01;;;;;;;13.18;5.65;;;18.10;38.60;;;;;;5065994;28;20052;-77
2021/04/24 09:07:29;;;;;;;26.02;6.53;;;17.30;38.60;;;;;;5068914;28;20076;-83
2021/04/24 09:09:57;;;;;;;17.48;6.20;;;17.70;39.00;;;;;;5055489;28;20098;-76
2021/04/24 09:12:38;;;;;;;16.08;5.28;;;17.80;38.90;;;;;;5053978;28;20059;-78
2021/04/24 09:15:29;;;;;;;9.93;5.55;;;17.60;38.30;;;;;;5053915;28;20123;-80
2021/04/24 09:18:08;;;;;;;10.45;5.38;;;18.70;37.70;;;;;;5055331;28;20052;-79
2021/04/24 09:20:49;;;;;;;10.98;4.85;;;18.00;38.00;;;;;;5054059;28;20050;-79
2021/04/24 09:23:18;;;;;;;11.13;4.95;;;18.10;37.90;;;;;;5054906;28;20056;-77
2021/04/24 09:25:50;;;;;;;12.45;5.25;;;17.60;38.30;;;;;;5048560;28;20144;-79
2021/04/24 09:28:32;;;;;;;9.77;5.22;;;18.10;38.20;;;;;;5055239;28;20135;-77
2021/04/24 09:31:12;;;;;;;17.73;5.40;;;18.20;37.40;;;;;;5053105;28;20141;-77
2021/04/24 09:33:39;;;;;;;12.45;4.95;;;18.20;37.80;;;;;;5052243;28;20084;-78
2021/04/24 09:36:08;;;;;;;10.65;5.18;;;17.80;38.30;;;;;;5050822;28;20179;-78
2021/04/24 09:38:42;;;;;;;17.25;6.05;;;18.50;37.40;;;;;;5053178;28;20131;-76
2021/04/24 09:41:19;;;;;;;11.27;5.30;;;18.60;37.00;;;;;;5052113;28;20484;-78
2021/04/24 09:43:57;;;;;;;12.30;5.18;;;18.10;37.90;;;;;;5053690;28;20167;-77
2021/04/24 09:46:53;;;;;;;10.82;5.53;;;17.80;37.50;;;;;;5051814;28;20057;-78
2021/04/24 09:49:27;;;;;;;16.15;5.28;;;19.30;36.80;;;;;;5050013;28;20462;-75
2021/04/24 09:51:56;;;;;;;17.13;5.45;;;19.80;35.60;;;;;;5056011;28;20424;-75
2021/04/24 09:54:42;;;;;;;11.15;4.75;;;19.00;35.90;;;;;;5055333;28;20075;-75
2021/04/24 09:57:15;;;;;;;14.15;4.72;;;18.60;36.40;;;;;;5054040;28;20460;-75
2021/04/24 09:59:57;;;;;;;13.98;5.10;;;17.90;36.50;;;;;;5050965;28;20048;-76
2021/04/24 10:02:41;;;;;;;23.95;14.30;;;17.70;37.40;;;;;;5052392;28;20041;-75
2021/04/24 10:05:14;;;;;;;14.20;5.25;;;17.90;37.30;;;;;;5053363;28;20060;-75
2021/04/24 10:07:42;;;;;;;14.93;5.40;;;17.40;37.80;;;;;;5053186;28;20355;-76
2021/04/24 10:10:11;;;;;;;12.32;5.22;;;17.90;37.50;;;;;;5053107;28;20049;-75
2021/04/24 10:12:37;;;;;;;10.73;5.20;;;18.30;37.00;;;;;;5052746;28;20492;-75
2021/04/24 10:15:05;;;;;;;8.45;4.72;;;19.50;35.60;;;;;;5052683;28;20072;-76
2021/04/24 10:17:33;;;;;;;8.60;5.00;;;19.00;35.30;;;;;;5055428;28;20045;-77
2021/04/24 10:20:01;;;;;;;10.27;4.22;;;20.50;34.50;;;;;;5060300;28;20048;-77
2021/04/24 10:22:28;;;;;;;10.70;4.40;;;23.50;31.90;;;;;;5053006;28;20045;-76
2021/04/24 10:24:54;;;;;;;9.82;4.85;;;23.20;30.80;;;;;;5052466;28;20152;-75
2021/04/24 10:27:22;;;;;;;9.95;4.90;;;23.10;31.30;;;;;;5055427;28;20132;-75
2021/04/24 10:29:50;;;;;;;10.32;4.78;;;24.50;29.10;;;;;;5052672;28;20147;-75
2021/04/24 10:32:17;;;;;;;10.27;4.63;;;23.40;29.90;;;;;;5051404;28;20454;-74
2021/04/24 10:34:44;;;;;;;10.57;4.78;;;23.20;29.70;;;;;;5052405;28;20051;-75
2021/04/24 10:37:12;;;;;;;11.00;4.85;;;21.60;31.20;;;;;;5049072;28;20101;-74
2021/04/24 10:39:40;;;;;;;13.93;4.88;;;21.70;31.70;;;;;;5051183;28;20059;-74
2021/04/24 10:42:19;;;;;;;9.25;4.82;;;20.90;32.60;;;;;;5052048;28;20080;-76
2021/04/24 10:44:56;;;;;;;9.85;4.55;;;21.50;32.20;;;;;;5051026;28;20053;-76
2021/04/24 10:47:58;;;;;;;9.80;4.68;;;22.60;30.80;;;;;;5049929;28;20365;-76
2021/04/24 10:50:48;;;;;;;10.70;4.80;;;23.50;30.00;;;;;;5051086;28;20060;-75
2021/04/24 10:53:23;;;;;;;10.18;4.57;;;24.90;28.60;;;;;;5050732;28;20095;-75
2021/04/24 10:55:52;;;;;;;7.90;4.13;;;25.90;27.90;;;;;;5051185;28;20133;-76
2021/04/24 10:58:21;;;;;;;12.77;4.35;;;24.30;28.60;;;;;;5049675;28;20128;-74
2021/04/24 11:00:53;;;;;;;9.32;4.57;;;24.80;28.40;;;;;;5052599;28;20084;-74
2021/04/24 11:03:46;;;;;;;10.00;4.60;;;23.90;28.80;;;;;;5048326;28;20452;-75
2021/04/24 11:06:16;;;;;;;9.13;4.38;;;21.90;29.70;;;;;;5050648;28;20044;-76
2021/04/24 11:08:44;;;;;;;12.35;4.80;;;20.10;31.80;;;;;;5059433;28;20071;-76
2021/04/24 11:11:17;;;;;;;9.68;3.97;;;19.90;32.50;;;;;;5053883;28;20522;-76
2021/04/24 11:13:47;;;;;;;11.75;4.45;;;19.90;32.50;;;;;;5050053;28;20087;-75
2021/04/24 11:16:17;;;;;;;12.45;4.53;;;19.80;32.70;;;;;;5050664;28;20048;-75
2021/04/24 11:18:47;;;;;;;12.77;4.90;;;19.80;31.80;;;;;;5050220;28;20480;-74
2021/04/24 11:21:16;;;;;;;10.63;4.72;;;19.90;32.40;;;;;;5051588;28;20135;-74
2021/04/24 11:23:51;;;;;;;14.10;4.50;;;19.70;32.50;;;;;;5049213;28;20044;-76
2021/04/24 11:26:41;;;;;;;9.77;5.07;;;20.50;32.20;;;;;;5050411;28;20386;-75
2021/04/24 11:29:36;;;;;;;15.48;5.35;;;21.00;31.00;;;;;;5052214;28;20151;-75
2021/04/24 11:32:06;;;;;;;9.55;3.78;;;21.00;31.10;;;;;;5051042;28;20131;-76
2021/04/24 11:34:33;;;;;;;13.50;4.70;;;21.80;30.10;;;;;;5049881;28;20056;-74
2021/04/24 11:37:15;;;;;;;11.68;4.50;;;21.50;30.40;;;;;;5059443;28;20045;-74
2021/04/24 11:40:20;;;;;;;8.52;3.97;;;21.50;30.00;;;;;;5049022;28;20094;-73
2021/04/24 11:43:01;;;;;;;12.80;4.43;;;22.50;29.20;;;;;;5051317;28;20132;-73
2021/04/24 11:45:53;;;;;;;18.75;4.63;;;22.20;29.30;;;;;;5053003;28;20051;-73
2021/04/24 11:48:48;;;;;;;11.82;4.75;;;22.30;29.10;;;;;;5064843;28;20152;-72
2021/04/24 11:51:52;;;;;;;10.57;4.20;;;22.80;28.70;;;;;;5052172;28;20051;-72
2021/04/24 11:54:25;;;;;;;8.55;4.03;;;23.00;28.60;;;;;;5044635;28;20135;-74
2021/04/24 11:56:53;;;;;;;10.27;4.32;;;23.70;27.90;;;;;;5051685;28;20152;-74
2021/04/24 11:59:21;;;;;;;11.93;4.60;;;25.30;26.90;;;;;;5048933;28;20143;-74
2021/04/24 12:01:51;;;;;;;10.15;4.13;;;23.90;27.20;;;;;;5061097;28;20055;-71
2021/04/24 12:04:36;;;;;;;10.43;4.45;;;23.70;28.10;;;;;;5051838;28;20079;-73
2021/04/24 12:07:14;;;;;;;9.60;4.55;;;24.10;27.70;;;;;;5050372;28;20098;-73
2021/04/24 12:10:01;;;;;;;10.73;4.45;;;24.10;27.90;;;;;;5052252;28;20142;-72
2021/04/24 12:12:34;;;;;;;15.35;5.00;;;23.90;28.30;;;;;;5056698;28;20098;-72
2021/04/24 12:15:11;;;;;;;15.25;4.57;;;25.20;28.40;;;;;;5068071;28;20222;-72
2021/04/24 12:17:51;;;;;;;13.05;5.25;;;25.90;27.30;;;;;;5069458;28;20056;-72
2021/04/24 12:20:26;;;;;;;8.57;4.40;;;25.30;27.40;;;;;;5071548;28;20178;-72
2021/04/24 12:22:54;;;;;;;11.73;4.78;;;25.40;27.30;;;;;;5069585;28;20519;-72
2021/04/24 12:25:23;;;;;;;9.57;4.88;;;24.50;27.80;;;;;;5068919;28;20053;-74
2021/04/24 12:27:52;;;;;;;10.43;4.75;;;24.90;28.00;;;;;;5067493;28;20545;-72
2021/04/24 12:30:24;;;;;;;14.15;5.43;;;24.90;28.10;;;;;;5071186;28;20079;-72
2021/04/24 12:32:53;;;;;;;10.38;4.60;;;26.30;26.80;;;;;;5070190;28;20102;-72
2021/04/24 12:35:28;;;;;;;11.55;4.60;;;26.90;26.10;;;;;;5071018;28;20052;-72
2021/04/24 12:38:01;;;;;;;13.68;5.05;;;27.40;26.40;;;;;;5063695;28;20076;-72
2021/04/24 12:40:28;;;;;;;15.38;4.97;;;27.20;26.30;;;;;;5071551;28;20083;-73
2021/04/24 12:43:07;;;;;;;9.43;4.93;;;26.60;26.00;;;;;;5066140;28;20082;-73
2021/04/24 12:45:34;;;;;;;12.43;4.97;;;26.20;26.30;;;;;;5068511;28;20060;-73
2021/04/24 12:48:00;;;;;;;13.80;4.95;;;26.70;26.40;;;;;;5070467;28;20139;-73
2021/04/24 12:50:37;;;;;;;11.65;5.45;;;26.50;26.00;;;;;;5069114;28;20383;-72
2021/04/24 12:53:05;;;;;;;10.35;5.60;;;25.20;26.90;;;;;;5069290;28;20398;-73
2021/04/24 12:55:35;;;;;;;10.02;5.30;;;24.90;27.40;;;;;;5066591;28;20129;-74